Time;durP1;ratioP1;P1;durP2;ratioP2;P2;SDS_P1;SDS_P2;PMS_P1;PMS_P2;Temp;Humidity;BMP_temperature;BMP_pressure;BME280_temperature;BME280_humidity;BME280_pressure;Samples;Min_cycle;Max_cycle;Signal;HPM_P1;HPM_P2
2021/06/25 00:01:40;;;;;;;2.80;2.60;;;17.50;99.90;;;;;;4955163;28;20188;-48
2021/06/25 00:04:05;;;;;;;2.90;2.43;;;17.60;99.90;;;;;;4954017;28;20196;-50
2021/06/25 00:06:31;;;;;;;3.23;2.73;;;17.60;99.90;;;;;;4953118;28;20661;-49
2021/06/25 00:08:57;;;;;;;2.97;2.53;;;17.70;99.90;;;;;;4955389;28;20208;-50
2021/06/25 00:11:23;;;;;;;2.80;2.60;;;17.40;99.90;;;;;;4947696;28;20471;-49
2021/06/25 00:13:48;;;;;;;3.10;2.33;;;17.30;99.90;;;;;;4953081;28;20186;-49
2021/06/25 00:16:14;;;;;;;2.50;2.30;;;17.10;99.90;;;;;;4952381;29;20176;-49
2021/06/25 00:18:40;;;;;;;3.03;2.63;;;17.30;99.90;;;;;;4962692;28;20240;-49
2021/06/25 00:21:06;;;;;;;2.63;2.43;;;17.20;99.90;;;;;;4954342;28;20184;-49
2021/06/25 00:23:31;;;;;;;2.80;2.60;;;17.20;99.90;;;;;;4955983;28;20233;-49
2021/06/25 00:25:58;;;;;;;2.90;2.70;;;17.20;99.90;;;;;;4951536;28;20438;-49
2021/06/25 00:28:23;;;;;;;2.60;2.40;;;17.30;99.90;;;;;;4951896;28;20216;-50
2021/06/25 00:30:49;;;;;;;1.90;1.80;;;17.10;99.90;;;;;;4945101;29;20193;-49
2021/06/25 00:33:14;;;;;;;2.50;2.23;;;17.10;99.90;;;;;;4954121;28;20682;-48
2021/06/25 00:35:40;;;;;;;2.80;2.60;;;17.30;99.90;;;;;;4948571;28;20246;-49
2021/06/25 00:38:06;;;;;;;1.80;1.70;;;17.30;99.90;;;;;;4950000;28;20204;-49
2021/06/25 00:40:33;;;;;;;2.53;2.13;;;17.20;99.90;;;;;;4953490;28;20676;-49
2021/06/25 00:42:58;;;;;;;2.10;2.00;;;17.20;99.90;;;;;;4954936;28;20188;-49
2021/06/25 00:45:24;;;;;;;2.10;1.73;;;17.00;99.90;;;;;;4951510;28;20195;-50
2021/06/25 00:47:51;;;;;;;2.23;2.03;;;17.00;99.90;;;;;;4962230;28;20212;-49
2021/06/25 00:50:20;;;;;;;1.98;1.88;;;16.80;99.90;;;;;;4951118;28;20624;-49
2021/06/25 00:52:57;;;;;;;2.28;1.85;;;17.20;99.90;;;;;;4956007;28;20211;-49
2021/06/25 00:55:26;;;;;;;1.90;1.80;;;17.10;99.90;;;;;;4945938;28;20192;-49
2021/06/25 00:57:52;;;;;;;1.90;1.80;;;17.10;99.90;;;;;;4955134;28;20204;-49
2021/06/25 01:00:18;;;;;;;1.60;1.50;;;17.10;99.90;;;;;;4948882;28;20566;-50
2021/06/25 01:02:44;;;;;;;1.60;1.50;;;17.10;99.90;;;;;;4954446;28;20451;-49
2021/06/25 01:05:12;;;;;;;1.85;1.50;;;17.20;99.90;;;;;;4955275;28;20196;-49
2021/06/25 01:07:38;;;;;;;1.58;1.48;;;17.00;99.90;;;;;;4952908;28;20342;-49
2021/06/25 01:10:06;;;;;;;1.43;1.33;;;17.00;99.90;;;;;;4942743;29;20610;-50
2021/06/25 01:12:32;;;;;;;1.63;1.52;;;16.90;99.90;;;;;;4948891;28;20262;-50
2021/06/25 01:14:58;;;;;;;2.10;2.00;;;16.90;99.90;;;;;;4950685;28;20180;-50
2021/06/25 01:17:36;;;;;;;1.50;1.40;;;17.10;99.90;;;;;;4952194;28;20228;-49
2021/06/25 01:20:07;;;;;;;1.70;1.60;;;16.80;99.90;;;;;;4955500;28;20181;-49
2021/06/25 01:22:34;;;;;;;1.50;1.40;;;16.90;99.90;;;;;;4970445;28;20196;-50
2021/06/25 01:25:20;;;;;;;2.45;2.13;;;16.90;99.90;;;;;;4950845;28;20184;-50
2021/06/25 01:27:48;;;;;;;2.10;1.77;;;16.90;99.90;;;;;;4948620;28;20215;-50
2021/06/25 01:30:19;;;;;;;1.83;1.40;;;17.10;99.90;;;;;;4947285;28;20184;-50
2021/06/25 01:32:45;;;;;;;1.83;1.73;;;17.00;99.90;;;;;;4967096;28;20212;-50
2021/06/25 01:35:12;;;;;;;1.63;1.52;;;17.10;99.90;;;;;;4948421;29;20188;-50
2021/06/25 01:37:38;;;;;;;1.45;1.33;;;17.10;99.90;;;;;;4943499;28;20232;-50
2021/06/25 01:40:07;;;;;;;1.50;1.40;;;17.10;99.90;;;;;;4953605;28;20600;-50
2021/06/25 01:42:34;;;;;;;3.65;1.50;;;17.10;99.90;;;;;;4951095;28;20192;-50
2021/06/25 01:45:08;;;;;;;1.10;1.00;;;17.10;99.90;;;;;;4950966;28;20546;-50
2021/06/25 01:47:39;;;;;;;1.77;1.60;;;17.00;99.90;;;;;;4936878;28;20230;-50
2021/06/25 01:50:07;;;;;;;1.70;1.60;;;17.10;99.90;;;;;;4951034;28;20705;-50
2021/06/25 01:52:32;;;;;;;2.95;1.67;;;16.90;99.90;;;;;;4954095;28;20258;-50
2021/06/25 01:54:58;;;;;;;1.70;1.60;;;17.00;99.90;;;;;;4947397;28;20192;-50
2021/06/25 01:57:24;;;;;;;1.77;1.27;;;17.00;99.90;;;;;;4966875;28;20208;-50
2021/06/25 01:59:49;;;;;;;1.70;1.30;;;16.90;99.90;;;;;;4946833;28;20195;-50
2021/06/25 02:02:15;;;;;;;1.77;1.20;;;16.50;99.90;;;;;;4946418;28;20184;-50
2021/06/25 02:04:41;;;;;;;1.27;1.17;;;16.90;99.90;;;;;;4946304;28;20193;-50
2021/06/25 02:07:07;;;;;;;2.30;1.80;;;16.70;99.90;;;;;;4952420;28;20304;-50
2021/06/25 02:09:33;;;;;;;1.80;1.53;;;16.90;99.90;;;;;;4964130;28;20742;-50
2021/06/25 02:11:59;;;;;;;1.30;1.20;;;16.90;99.90;;;;;;4945975;29;20216;-50
2021/06/25 02:14:25;;;;;;;1.50;1.40;;;16.90;99.90;;;;;;4969996;28;20187;-50
2021/06/25 02:16:51;;;;;;;1.40;1.30;;;16.90;99.90;;;;;;4954929;28;20188;-51
2021/06/25 02:19:16;;;;;;;2.80;1.30;;;17.00;99.90;;;;;;4949326;29;20495;-51
2021/06/25 02:21:42;;;;;;;2.13;1.70;;;17.00;99.90;;;;;;4948238;28;20184;-51
2021/06/25 02:24:08;;;;;;;2.57;1.47;;;16.90;99.90;;;;;;4954063;28;20219;-51
2021/06/25 02:26:33;;;;;;;1.30;1.20;;;17.00;99.90;;;;;;4945856;28;20227;-51
2021/06/25 02:28:59;;;;;;;2.00;1.90;;;16.80;99.90;;;;;;4947725;29;20213;-51
2021/06/25 02:31:25;;;;;;;1.50;1.40;;;16.80;99.90;;;;;;4951914;28;20299;-51
2021/06/25 02:33:50;;;;;;;1.50;1.40;;;16.80;99.90;;;;;;4962749;28;20189;-50
2021/06/25 02:36:16;;;;;;;1.60;1.50;;;16.70;99.90;;;;;;4941877;29;20455;-51
2021/06/25 02:38:42;;;;;;;2.30;1.53;;;16.70;99.90;;;;;;4962107;28;20291;-51
2021/06/25 02:41:07;;;;;;;1.53;1.43;;;16.80;99.90;;;;;;4946847;28;20242;-51
2021/06/25 02:43:33;;;;;;;2.03;1.43;;;17.00;99.90;;;;;;4959837;28;20180;-51
2021/06/25 02:45:59;;;;;;;1.67;1.57;;;16.70;99.90;;;;;;4971483;28;20585;-51
2021/06/25 02:48:24;;;;;;;1.90;1.80;;;16.60;99.90;;;;;;4944270;28;20456;-50
2021/06/25 02:50:50;;;;;;;1.90;1.80;;;16.60;99.90;;;;;;4945316;28;20279;-51
2021/06/25 02:53:16;;;;;;;2.03;1.83;;;16.80;99.90;;;;;;4953649;28;20589;-51
2021/06/25 02:55:51;;;;;;;2.07;1.97;;;16.70;99.90;;;;;;4949577;28;20565;-51
2021/06/25 02:58:18;;;;;;;1.92;1.83;;;16.40;99.90;;;;;;4944222;28;20201;-50
2021/06/25 03:00:44;;;;;;;2.22;2.03;;;16.50;99.90;;;;;;4942624;28;20248;-51
2021/06/25 03:03:10;;;;;;;2.70;2.50;;;16.70;99.90;;;;;;4965016;28;20188;-51
2021/06/25 03:05:35;;;;;;;2.27;2.17;;;16.40;99.90;;;;;;4936583;28;20528;-50
2021/06/25 03:08:01;;;;;;;2.67;2.47;;;16.70;99.90;;;;;;4963719;28;20615;-51
2021/06/25 03:10:27;;;;;;;2.63;2.43;;;16.60;99.90;;;;;;4949350;28;20709;-50
2021/06/25 03:12:52;;;;;;;2.57;1.97;;;16.40;99.90;;;;;;4950301;28;20211;-51
2021/06/25 03:15:18;;;;;;;2.23;2.03;;;16.40;99.90;;;;;;4954323;28;20208;-51
2021/06/25 03:17:43;;;;;;;3.00;2.70;;;16.50;99.90;;;;;;4952647;28;20213;-51
2021/06/25 03:20:10;;;;;;;2.40;2.30;;;16.70;99.90;;;;;;4953860;28;20184;-50
2021/06/25 03:22:36;;;;;;;2.17;1.98;;;16.50;99.90;;;;;;4954185;28;20815;-51
2021/06/25 03:25:02;;;;;;;2.13;2.03;;;16.40;99.90;;;;;;4952726;28;20589;-51
2021/06/25 03:27:28;;;;;;;2.25;2.08;;;16.70;99.90;;;;;;4962600;28;20463;-51
2021/06/25 03:29:54;;;;;;;1.83;1.73;;;16.90;99.90;;;;;;4953843;28;20560;-50
2021/06/25 03:32:19;;;;;;;2.27;2.07;;;16.70;99.90;;;;;;4952217;28;20210;-50
2021/06/25 03:34:45;;;;;;;1.80;1.70;;;16.70;99.90;;;;;;4955741;28;20604;-50
2021/06/25 03:37:10;;;;;;;1.93;1.73;;;16.80;99.90;;;;;;4951653;28;20227;-51
2021/06/25 03:39:36;;;;;;;1.80;1.70;;;16.80;99.90;;;;;;4950648;28;20184;-51
2021/06/25 03:42:02;;;;;;;1.70;1.60;;;16.80;99.90;;;;;;4949203;28;20299;-50
2021/06/25 03:44:28;;;;;;;2.33;1.45;;;16.80;99.90;;;;;;4952328;28;20198;-53
2021/06/25 03:46:53;;;;;;;1.73;1.63;;;16.70;99.90;;;;;;4949960;28;20580;-48
2021/06/25 03:49:19;;;;;;;1.60;1.50;;;16.70;99.90;;;;;;4950358;28;20192;-50
2021/06/25 03:51:45;;;;;;;1.70;1.60;;;16.80;99.90;;;;;;4949352;28;20218;-50
2021/06/25 03:54:10;;;;;;;1.70;1.60;;;16.70;99.90;;;;;;4950305;28;20180;-50
2021/06/25 03:56:36;;;;;;;1.90;1.70;;;16.80;99.90;;;;;;4950240;28;20233;-51
2021/06/25 03:59:01;;;;;;;1.60;1.50;;;16.80;99.90;;;;;;4968114;28;20208;-50
2021/06/25 04:01:27;;;;;;;1.63;1.53;;;17.00;99.90;;;;;;4956311;28;20649;-50
2021/06/25 04:03:53;;;;;;;1.60;1.50;;;16.80;99.90;;;;;;4950900;28;20302;-50
2021/06/25 04:06:18;;;;;;;1.97;1.87;;;17.00;99.90;;;;;;4948246;28;20194;-52
2021/06/25 04:08:47;;;;;;;2.60;1.27;;;16.90;99.90;;;;;;4949919;28;20212;-50
2021/06/25 04:11:13;;;;;;;1.50;1.40;;;16.90;99.90;;;;;;4955371;28;20188;-52
2021/06/25 04:13:39;;;;;;;1.73;1.63;;;16.80;99.90;;;;;;4949540;28;20198;-50
2021/06/25 04:16:05;;;;;;;2.87;1.80;;;16.80;99.90;;;;;;4951740;28;20192;-49
2021/06/25 04:18:30;;;;;;;1.50;1.40;;;16.90;99.90;;;;;;4943131;28;20284;-53
2021/06/25 04:20:57;;;;;;;4.20;1.97;;;16.90;99.90;;;;;;4948000;28;20189;-49
2021/06/25 04:23:23;;;;;;;1.70;1.60;;;16.60;99.90;;;;;;4946759;28;20705;-49
2021/06/25 04:25:48;;;;;;;1.80;1.70;;;16.80;99.90;;;;;;4949131;28;20287;-48
2021/06/25 04:28:15;;;;;;;1.87;1.77;;;16.80;99.90;;;;;;4962257;28;20559;-48
2021/06/25 04:30:41;;;;;;;1.88;1.77;;;17.10;99.90;;;;;;4949142;28;20200;-48
2021/06/25 04:33:09;;;;;;;1.67;1.58;;;16.90;99.90;;;;;;4949370;28;20681;-49
2021/06/25 04:35:35;;;;;;;1.60;1.50;;;17.10;99.90;;;;;;4949024;28;20220;-50
2021/06/25 04:38:03;;;;;;;1.52;1.42;;;17.20;99.90;;;;;;4945460;28;20204;-50
2021/06/25 04:40:30;;;;;;;1.40;1.30;;;17.30;99.90;;;;;;4946045;28;20188;-50
2021/06/25 04:42:56;;;;;;;1.73;1.63;;;17.20;99.90;;;;;;4947047;28;20788;-49
2021/06/25 04:45:22;;;;;;;1.60;1.50;;;17.40;99.90;;;;;;4965398;28;20211;-49
2021/06/25 04:47:47;;;;;;;2.23;1.30;;;17.30;99.90;;;;;;4968882;28;20239;-48
2021/06/25 04:50:13;;;;;;;2.53;1.57;;;17.70;99.90;;;;;;4951766;28;20193;-49
2021/06/25 04:52:39;;;;;;;1.50;1.40;;;17.50;99.90;;;;;;4948140;28;20484;-48
2021/06/25 04:55:07;;;;;;;2.58;1.70;;;17.60;99.90;;;;;;4952630;28;20447;-51
2021/06/25 04:57:32;;;;;;;1.70;1.60;;;17.50;99.90;;;;;;4948403;28;20275;-50
2021/06/25 04:59:58;;;;;;;2.13;1.80;;;17.30;99.90;;;;;;4948443;28;20212;-50
2021/06/25 05:02:24;;;;;;;1.10;1.10;;;17.50;99.90;;;;;;4944711;28;20184;-50
2021/06/25 05:04:49;;;;;;;1.70;1.60;;;17.60;99.90;;;;;;4967688;28;20199;-50
2021/06/25 05:07:15;;;;;;;3.90;3.50;;;17.70;99.90;;;;;;4947573;28;20216;-50
2021/06/25 05:09:41;;;;;;;1.63;1.50;;;17.60;99.90;;;;;;4950359;28;20511;-50
2021/06/25 05:12:07;;;;;;;1.80;1.37;;;17.60;99.90;;;;;;4949152;28;20551;-50
2021/06/25 05:14:33;;;;;;;2.63;2.10;;;17.60;99.90;;;;;;4941363;28;20192;-50
2021/06/25 05:16:58;;;;;;;1.90;1.80;;;17.70;99.90;;;;;;4950292;28;20196;-50
2021/06/25 05:19:24;;;;;;;4.40;1.40;;;17.70;99.90;;;;;;4946695;28;20543;-50
2021/06/25 05:21:50;;;;;;;1.67;1.50;;;17.80;99.90;;;;;;4947803;28;20192;-50
2021/06/25 05:24:15;;;;;;;1.50;1.30;;;17.70;99.90;;;;;;4946911;28;20221;-50
2021/06/25 05:26:41;;;;;;;1.90;1.63;;;17.80;99.90;;;;;;4945355;29;20565;-50
2021/06/25 05:29:06;;;;;;;2.60;1.80;;;17.50;99.90;;;;;;4948339;28;20208;-50
2021/06/25 05:31:32;;;;;;;1.87;1.77;;;17.70;99.90;;;;;;4946375;28;20311;-50
2021/06/25 05:33:59;;;;;;;2.33;2.20;;;17.80;99.90;;;;;;4946210;28;20243;-50
2021/06/25 05:36:24;;;;;;;2.85;2.40;;;17.90;99.90;;;;;;4944516;28;20189;-50
2021/06/25 05:38:50;;;;;;;2.20;2.00;;;17.80;99.90;;;;;;4951722;28;20211;-50
2021/06/25 05:41:16;;;;;;;1.90;1.80;;;17.60;99.90;;;;;;4958433;28;20188;-50
2021/06/25 05:43:42;;;;;;;1.83;1.67;;;17.90;99.90;;;;;;4943892;28;20190;-52
2021/06/25 05:46:09;;;;;;;1.67;1.58;;;17.90;99.90;;;;;;4944898;28;20248;-52
2021/06/25 05:48:35;;;;;;;1.70;1.50;;;17.90;99.90;;;;;;4952352;28;20236;-51
2021/06/25 05:51:01;;;;;;;1.70;1.60;;;17.70;99.90;;;;;;4945443;28;20224;-51
2021/06/25 05:53:26;;;;;;;1.30;1.20;;;17.50;99.90;;;;;;4941425;28;20534;-52
2021/06/25 05:55:52;;;;;;;3.17;1.63;;;17.70;99.90;;;;;;4951021;28;20505;-52
2021/06/25 05:58:18;;;;;;;4.50;1.67;;;17.80;99.90;;;;;;4948145;28;20205;-52
2021/06/25 06:00:43;;;;;;;1.53;1.20;;;17.70;99.90;;;;;;4942781;28;20610;-52
2021/06/25 06:03:09;;;;;;;2.03;1.10;;;17.80;99.90;;;;;;4947753;28;20598;-51
2021/06/25 06:05:36;;;;;;;3.27;1.50;;;17.70;99.90;;;;;;4943990;28;20456;-51
2021/06/25 06:08:03;;;;;;;1.10;1.00;;;17.60;99.90;;;;;;4945964;28;20552;-50
2021/06/25 06:10:29;;;;;;;1.90;1.58;;;17.70;99.90;;;;;;4942610;28;20224;-51
2021/06/25 06:12:54;;;;;;;2.53;1.40;;;17.70;99.90;;;;;;4951307;28;20658;-51
2021/06/25 06:15:20;;;;;;;1.63;1.33;;;17.80;99.90;;;;;;4951006;28;20266;-52
2021/06/25 06:17:49;;;;;;;1.63;1.53;;;17.90;99.90;;;;;;4947363;28;20213;-50
2021/06/25 06:20:19;;;;;;;2.05;1.70;;;17.80;99.90;;;;;;4952140;28;20439;-51
2021/06/25 06:36:23;;;;;;;2.50;2.30;;;18.50;99.90;;;;;;4963595;28;20184;-49
2021/06/25 06:38:50;;;;;;;1.90;1.80;;;18.50;99.90;;;;;;4942822;28;20577;-50
2021/06/25 06:41:16;;;;;;;2.30;2.10;;;18.20;99.90;;;;;;4969729;28;20191;-49
2021/06/25 06:43:43;;;;;;;1.50;1.40;;;18.20;99.90;;;;;;4948835;28;20236;-48
2021/06/25 06:46:10;;;;;;;1.75;1.65;;;18.10;99.90;;;;;;4946948;28;20212;-49
2021/06/25 06:48:37;;;;;;;1.90;1.50;;;18.10;99.90;;;;;;4938304;28;20236;-49
2021/06/25 06:51:04;;;;;;;2.63;1.85;;;18.40;99.90;;;;;;4948974;28;20266;-49
2021/06/25 06:53:30;;;;;;;2.63;2.30;;;18.30;99.90;;;;;;4949815;28;20208;-50
2021/06/25 06:55:56;;;;;;;3.37;2.60;;;18.40;99.90;;;;;;4952685;28;20191;-49
2021/06/25 06:58:21;;;;;;;4.40;2.27;;;18.30;99.90;;;;;;4947923;28;20233;-50
2021/06/25 07:00:47;;;;;;;2.50;1.93;;;18.30;99.90;;;;;;4958134;28;20561;-50
2021/06/25 07:03:13;;;;;;;2.77;2.57;;;18.40;99.90;;;;;;4945643;28;20464;-50
2021/06/25 07:05:38;;;;;;;3.42;2.35;;;18.40;99.90;;;;;;4940535;28;20200;-50
2021/06/25 07:08:04;;;;;;;1.60;1.50;;;18.40;99.90;;;;;;4942273;28;20828;-49
2021/06/25 07:10:30;;;;;;;2.70;2.50;;;18.40;99.90;;;;;;4964614;28;20280;-50
2021/06/25 07:12:55;;;;;;;2.53;2.00;;;18.30;99.90;;;;;;4961118;28;20214;-49
2021/06/25 07:15:22;;;;;;;3.00;2.10;;;18.40;99.90;;;;;;4948036;28;20191;-50
2021/06/25 07:17:47;;;;;;;3.13;2.20;;;18.30;99.90;;;;;;4946261;28;20663;-50
2021/06/25 07:20:13;;;;;;;1.80;1.70;;;18.30;99.90;;;;;;4949404;28;20204;-50
2021/06/25 07:22:39;;;;;;;1.70;1.60;;;18.30;99.90;;;;;;4949732;28;20269;-49
2021/06/25 07:25:05;;;;;;;3.13;1.90;;;18.00;99.90;;;;;;4950090;28;20483;-51
2021/06/25 07:27:31;;;;;;;2.85;1.60;;;18.20;99.90;;;;;;4965793;28;20467;-52
2021/06/25 07:29:57;;;;;;;2.40;1.70;;;18.20;99.90;;;;;;4949995;28;20263;-50
2021/06/25 07:32:22;;;;;;;2.13;1.80;;;18.30;99.90;;;;;;4968242;28;20303;-50
2021/06/25 07:34:48;;;;;;;2.20;2.00;;;18.40;99.90;;;;;;4943466;28;20944;-50
2021/06/25 07:37:14;;;;;;;2.17;2.07;;;18.40;99.90;;;;;;4947775;28;20993;-48
2021/06/25 07:39:39;;;;;;;2.80;2.60;;;18.40;99.90;;;;;;4949298;28;20660;-50
2021/06/25 07:42:06;;;;;;;2.77;2.47;;;18.50;99.90;;;;;;4944962;29;20192;-49
2021/06/25 07:44:31;;;;;;;3.60;3.40;;;18.50;99.90;;;;;;4945094;28;20190;-50
2021/06/25 07:46:58;;;;;;;3.83;2.80;;;18.60;99.90;;;;;;4947324;28;20201;-50
2021/06/25 07:49:24;;;;;;;2.60;2.40;;;18.70;99.90;;;;;;4951379;28;20211;-49
2021/06/25 07:51:50;;;;;;;3.20;2.90;;;18.70;99.90;;;;;;4948147;28;20212;-51
2021/06/25 07:54:15;;;;;;;3.67;3.00;;;18.40;99.90;;;;;;4948588;28;20198;-50
2021/06/25 07:56:41;;;;;;;3.20;3.00;;;18.50;99.90;;;;;;4951240;28;20250;-49
2021/06/25 07:59:07;;;;;;;3.63;3.33;;;18.70;99.90;;;;;;4946290;28;20212;-51
2021/06/25 08:01:32;;;;;;;5.50;4.50;;;18.70;99.90;;;;;;4949084;28;20734;-49
2021/06/25 08:03:58;;;;;;;5.00;4.37;;;18.60;99.90;;;;;;4959883;28;20275;-51
2021/06/25 08:06:24;;;;;;;3.23;2.87;;;18.60;99.90;;;;;;4952637;28;20188;-52
2021/06/25 08:08:49;;;;;;;3.63;3.10;;;18.50;99.90;;;;;;4947194;28;20216;-49
2021/06/25 08:11:15;;;;;;;3.33;3.03;;;18.60;99.90;;;;;;4967833;28;20192;-50
2021/06/25 08:13:40;;;;;;;2.87;2.67;;;18.90;99.90;;;;;;4950105;28;20191;-51
2021/06/25 08:16:06;;;;;;;3.07;2.33;;;19.10;99.90;;;;;;4954435;28;20195;-48
2021/06/25 08:18:32;;;;;;;3.43;3.00;;;19.40;99.90;;;;;;4949821;28;20215;-49
2021/06/25 08:20:57;;;;;;;3.50;2.70;;;19.80;99.90;;;;;;4969617;28;20557;-52
2021/06/25 08:23:23;;;;;;;2.67;2.47;;;20.10;99.90;;;;;;4949123;28;20234;-50
2021/06/25 08:25:49;;;;;;;2.80;2.23;;;20.40;99.90;;;;;;4960601;28;20361;-50
2021/06/25 08:28:14;;;;;;;2.30;2.10;;;20.50;99.90;;;;;;4945888;28;20207;-49
2021/06/25 08:30:40;;;;;;;2.70;2.50;;;20.60;99.90;;;;;;4943900;29;20193;-51
2021/06/25 08:33:06;;;;;;;2.60;2.40;;;20.60;99.90;;;;;;4947115;28;20204;-50
2021/06/25 08:35:32;;;;;;;4.27;2.97;;;20.20;99.90;;;;;;4953277;28;20471;-51
2021/06/25 08:37:57;;;;;;;3.35;3.10;;;20.00;99.90;;;;;;4963906;28;20674;-50
2021/06/25 08:40:25;;;;;;;2.90;2.70;;;20.00;99.90;;;;;;4949563;28;20203;-50
2021/06/25 08:42:51;;;;;;;3.50;3.20;;;20.00;99.90;;;;;;4947951;28;20199;-50
2021/06/25 08:45:17;;;;;;;3.63;3.33;;;19.70;99.90;;;;;;4948952;28;20192;-49
2021/06/25 08:47:51;;;;;;;4.78;3.55;;;19.60;99.90;;;;;;4942170;28;20307;-52
2021/06/25 08:50:19;;;;;;;3.50;3.20;;;19.50;99.90;;;;;;4950156;28;20188;-50
2021/06/25 08:52:47;;;;;;;5.70;3.55;;;19.50;99.90;;;;;;4952300;28;20231;-52
2021/06/25 08:55:15;;;;;;;3.45;3.15;;;19.40;99.90;;;;;;4953779;28;20709;-53
2021/06/25 08:57:41;;;;;;;4.20;3.80;;;19.40;99.90;;;;;;4948650;28;20270;-53
2021/06/25 09:00:09;;;;;;;3.95;2.97;;;19.40;99.90;;;;;;4950510;28;20181;-51
2021/06/25 09:02:36;;;;;;;3.42;3.13;;;19.40;99.90;;;;;;4971083;28;20715;-49
2021/06/25 09:05:23;;;;;;;3.47;3.17;;;19.50;99.90;;;;;;4949219;28;20198;-51
2021/06/25 09:07:49;;;;;;;3.40;3.10;;;19.50;99.90;;;;;;4966458;28;20285;-51
2021/06/25 09:10:27;;;;;;;3.17;2.97;;;19.50;99.90;;;;;;4947637;28;20235;-51
2021/06/25 09:13:07;;;;;;;3.53;3.22;;;19.40;99.90;;;;;;4947538;28;20722;-50
2021/06/25 09:15:33;;;;;;;3.75;3.45;;;19.40;99.90;;;;;;4952842;28;20202;-50
2021/06/25 09:18:02;;;;;;;3.72;3.42;;;19.30;99.90;;;;;;4949841;28;20266;-51
2021/06/25 09:20:40;;;;;;;3.20;2.90;;;19.40;99.90;;;;;;4946678;28;20733;-51
2021/06/25 09:23:09;;;;;;;4.22;3.83;;;19.40;99.90;;;;;;4945058;28;20192;-50
2021/06/25 09:26:09;;;;;;;3.90;3.60;;;19.40;99.90;;;;;;4942578;28;20727;-50
2021/06/25 09:28:36;;;;;;;3.90;3.60;;;19.40;99.90;;;;;;4949449;28;20215;-50
2021/06/25 09:31:11;;;;;;;3.95;3.65;;;19.40;99.90;;;;;;4951007;28;20194;-50
2021/06/25 09:33:43;;;;;;;4.47;4.18;;;19.30;99.90;;;;;;4947149;28;20319;-50
2021/06/25 09:36:21;;;;;;;5.82;5.35;;;19.30;99.90;;;;;;4946644;28;20190;-49
2021/06/25 09:38:54;;;;;;;4.78;4.38;;;19.20;99.90;;;;;;4943124;28;20354;-53
2021/06/25 09:41:24;;;;;;;4.88;4.47;;;19.10;99.90;;;;;;4964246;28;20187;-51
2021/06/25 09:43:58;;;;;;;5.22;4.70;;;18.90;99.90;;;;;;4946535;29;20192;-51
2021/06/25 09:46:28;;;;;;;5.57;5.07;;;18.90;99.90;;;;;;4946323;28;20193;-49
2021/06/25 09:48:56;;;;;;;6.28;5.78;;;19.10;99.90;;;;;;4951849;28;20561;-50
2021/06/25 09:51:22;;;;;;;5.60;5.10;;;19.20;99.90;;;;;;4951145;28;20377;-50
2021/06/25 09:54:06;;;;;;;5.20;4.80;;;19.10;99.90;;;;;;4946556;29;20194;-50
2021/06/25 09:56:35;;;;;;;5.18;4.65;;;19.10;99.90;;;;;;4952722;28;20246;-51
2021/06/25 09:59:56;;;;;;;7.57;6.80;;;19.00;99.90;;;;;;4947866;29;20203;-51
2021/06/25 10:02:22;;;;;;;6.85;6.25;;;19.30;99.90;;;;;;4940789;28;20194;-51
2021/06/25 10:04:53;;;;;;;5.13;4.72;;;19.40;99.90;;;;;;4950440;28;20293;-50
2021/06/25 10:07:25;;;;;;;10.48;9.52;;;19.20;99.90;;;;;;4941504;28;20207;-50
2021/06/25 10:09:57;;;;;;;7.18;6.47;;;19.30;99.90;;;;;;4947382;28;20692;-50
2021/06/25 10:12:23;;;;;;;7.43;6.82;;;19.40;99.90;;;;;;4943207;29;20204;-50
2021/06/25 10:14:51;;;;;;;7.00;6.30;;;19.50;99.90;;;;;;4944900;28;20302;-50
2021/06/25 10:17:17;;;;;;;6.07;5.57;;;19.40;99.90;;;;;;4943106;28;20245;-53
2021/06/25 10:19:50;;;;;;;6.82;6.22;;;19.40;99.90;;;;;;4963690;28;20185;-51
2021/06/25 10:22:20;;;;;;;7.07;6.38;;;19.60;99.90;;;;;;4945573;28;20589;-50
2021/06/25 10:24:50;;;;;;;6.68;6.07;;;19.50;99.90;;;;;;4951723;28;20188;-51
2021/06/25 10:27:18;;;;;;;9.05;8.25;;;19.50;99.90;;;;;;4935401;28;20293;-51
2021/06/25 10:29:44;;;;;;;7.03;6.43;;;19.60;99.90;;;;;;4949331;28;20213;-51
2021/06/25 10:32:10;;;;;;;7.60;6.80;;;19.60;99.90;;;;;;4939485;29;20222;-51
2021/06/25 10:34:37;;;;;;;8.10;7.40;;;19.70;99.90;;;;;;4943049;28;20577;-51
2021/06/25 10:37:25;;;;;;;7.85;7.05;;;19.60;99.90;;;;;;4948930;28;20187;-50
2021/06/25 10:39:51;;;;;;;6.32;5.82;;;19.50;99.90;;;;;;4941697;28;20192;-51
2021/06/25 10:42:17;;;;;;;7.95;7.20;;;19.80;99.90;;;;;;4948711;28;20184;-51
2021/06/25 10:44:53;;;;;;;9.13;8.23;;;19.90;99.90;;;;;;4964458;28;20212;-51
2021/06/25 10:47:19;;;;;;;6.00;5.40;;;20.10;99.90;;;;;;4946607;28;20207;-52
2021/06/25 10:50:00;;;;;;;5.00;4.60;;;20.00;99.90;;;;;;4948795;28;20183;-51
2021/06/25 10:52:40;;;;;;;7.72;7.03;;;20.00;99.90;;;;;;4952511;28;20235;-51
2021/06/25 10:55:11;;;;;;;6.15;5.65;;;19.90;99.90;;;;;;4966394;28;20210;-51
2021/06/25 10:57:50;;;;;;;6.65;5.90;;;19.90;99.90;;;;;;4941946;28;20355;-52
2021/06/25 11:00:38;;;;;;;5.30;4.82;;;19.90;99.90;;;;;;4938557;28;20185;-50
2021/06/25 11:03:27;;;;;;;6.20;5.70;;;19.80;99.90;;;;;;4940224;28;20192;-51
2021/06/25 11:05:53;;;;;;;6.50;5.63;;;19.70;99.90;;;;;;4941098;28;20219;-51
2021/06/25 11:08:20;;;;;;;7.20;6.60;;;19.50;99.90;;;;;;4943153;28;20215;-51
2021/06/25 11:10:59;;;;;;;6.80;6.20;;;19.50;99.90;;;;;;4962099;28;20198;-51
2021/06/25 11:13:34;;;;;;;6.80;6.13;;;19.40;99.90;;;;;;4940949;28;20222;-52
2021/06/25 11:16:03;;;;;;;6.60;6.00;;;19.60;99.90;;;;;;4943763;28;20185;-53
2021/06/25 11:18:30;;;;;;;7.40;6.80;;;19.60;99.90;;;;;;4939800;28;20289;-52
2021/06/25 11:21:09;;;;;;;6.65;5.90;;;19.70;99.90;;;;;;4944263;28;20184;-52
2021/06/25 11:23:38;;;;;;;5.90;5.30;;;19.80;99.90;;;;;;4950869;28;20548;-51
2021/06/25 11:26:25;;;;;;;5.63;5.13;;;19.80;99.90;;;;;;4941382;29;20710;-51
2021/06/25 11:28:52;;;;;;;7.32;6.63;;;20.00;99.90;;;;;;4940530;28;20239;-51
2021/06/25 11:31:28;;;;;;;7.18;6.25;;;20.00;99.90;;;;;;4952059;28;20230;-51
2021/06/25 11:34:00;;;;;;;7.38;6.75;;;20.00;99.90;;;;;;4951259;28;20200;-51
2021/06/25 11:36:31;;;;;;;7.40;6.70;;;20.00;99.90;;;;;;4948289;29;20278;-51
2021/06/25 11:39:14;;;;;;;7.70;7.00;;;20.10;99.90;;;;;;4946877;28;20267;-50
2021/06/25 11:41:48;;;;;;;8.68;7.82;;;20.20;99.90;;;;;;4967777;28;20196;-50
2021/06/25 11:44:15;;;;;;;8.98;8.18;;;20.10;99.90;;;;;;4952742;28;20196;-50
2021/06/25 11:46:48;;;;;;;9.77;8.80;;;20.20;99.90;;;;;;4938884;28;20206;-51
2021/06/25 11:49:14;;;;;;;11.02;9.63;;;20.40;99.90;;;;;;4969081;28;20219;-50
2021/06/25 11:51:41;;;;;;;11.53;10.33;;;20.30;99.90;;;;;;4953258;28;20246;-51
2021/06/25 11:54:10;;;;;;;21.38;10.52;;;20.20;99.90;;;;;;4951184;28;20190;-50
2021/06/25 11:56:36;;;;;;;11.10;10.00;;;20.30;99.90;;;;;;4967352;28;20197;-51
2021/06/25 11:59:05;;;;;;;11.98;10.60;;;20.60;99.90;;;;;;4947821;28;20209;-51
2021/06/25 12:01:32;;;;;;;13.50;12.20;;;20.90;99.90;;;;;;4953058;28;20664;-51
2021/06/25 12:03:59;;;;;;;10.20;9.20;;;21.00;99.90;;;;;;4969901;28;20657;-51
2021/06/25 12:06:26;;;;;;;7.40;6.75;;;21.20;99.90;;;;;;4949683;28;20712;-50
2021/06/25 12:09:01;;;;;;;6.85;6.15;;;21.00;99.90;;;;;;4949297;28;20210;-50
2021/06/25 12:11:28;;;;;;;6.63;6.03;;;21.10;99.90;;;;;;4947452;28;20192;-51
2021/06/25 12:14:00;;;;;;;7.15;6.45;;;21.10;99.90;;;;;;4950002;28;20189;-50
2021/06/25 12:16:26;;;;;;;6.60;6.00;;;21.10;99.90;;;;;;4950959;28;20187;-51
2021/06/25 12:18:52;;;;;;;18.50;6.70;;;21.30;99.90;;;;;;4953687;28;20216;-52
2021/06/25 12:21:19;;;;;;;6.47;5.70;;;21.50;99.90;;;;;;4950984;28;20554;-52
2021/06/25 12:23:54;;;;;;;6.10;5.25;;;21.50;99.90;;;;;;4957414;28;20188;-51
2021/06/25 12:26:21;;;;;;;6.18;4.93;;;21.50;99.90;;;;;;4968275;28;20276;-50
2021/06/25 12:28:52;;;;;;;6.55;5.28;;;21.60;99.90;;;;;;4939967;29;20208;-50
2021/06/25 12:31:21;;;;;;;7.90;5.68;;;21.60;99.90;;;;;;4970076;28;20263;-53
2021/06/25 12:33:48;;;;;;;5.57;5.07;;;21.80;99.90;;;;;;4944331;29;20192;-50
2021/06/25 12:36:15;;;;;;;6.30;5.70;;;21.70;99.90;;;;;;4946990;28;20680;-52
2021/06/25 12:38:42;;;;;;;6.10;5.60;;;21.60;99.90;;;;;;4942598;28;20254;-51
2021/06/25 12:41:10;;;;;;;6.00;5.40;;;21.70;99.90;;;;;;4952931;28;20243;-50
2021/06/25 12:43:37;;;;;;;6.25;5.65;;;21.80;99.90;;;;;;4955776;28;20192;-50
2021/06/25 12:46:10;;;;;;;5.57;5.07;;;21.40;99.90;;;;;;4947198;28;20433;-51
2021/06/25 12:49:00;;;;;;;5.32;4.32;;;21.30;99.90;;;;;;4948511;28;20619;-52
2021/06/25 12:51:34;;;;;;;4.53;4.13;;;21.40;99.90;;;;;;4948672;28;20188;-52
2021/06/25 12:54:00;;;;;;;5.50;5.00;;;21.50;99.90;;;;;;4951269;29;20185;-53
2021/06/25 12:56:43;;;;;;;4.60;4.20;;;21.70;99.90;;;;;;4951760;28;20177;-51
2021/06/25 12:59:19;;;;;;;4.90;4.47;;;21.50;99.90;;;;;;4956297;28;20211;-51
2021/06/25 13:01:50;;;;;;;5.72;5.20;;;21.40;99.90;;;;;;4947479;28;20192;-51
2021/06/25 13:04:24;;;;;;;5.38;4.93;;;21.80;99.90;;;;;;4950445;28;20235;-51